createdAt,value
2019-02-10T00:00:28.548Z,1003.20
2019-02-10T00:01:28.745Z,1003.16
2019-02-10T00:02:29.053Z,1003.14
2019-02-10T00:03:29.171Z,1003.14
2019-02-10T00:04:29.377Z,1003.16
2019-02-10T00:05:29.609Z,1003.20
2019-02-10T00:06:29.805Z,1003.18
2019-02-10T00:07:30.032Z,1003.20
2019-02-10T00:08:30.233Z,1003.19
2019-02-10T00:09:30.463Z,1003.16
2019-02-10T00:10:30.720Z,1003.07
2019-02-10T00:11:30.965Z,1003.09
2019-02-10T00:12:31.112Z,1003.13
2019-02-10T00:13:31.377Z,1003.09
2019-02-10T00:14:31.561Z,1003.12
2019-02-10T00:15:31.784Z,1003.14
2019-02-10T00:16:31.982Z,1003.13
2019-02-10T00:17:32.214Z,1003.14
2019-02-10T00:18:32.404Z,1003.20
2019-02-10T00:19:32.735Z,1003.19
2019-02-10T00:20:32.867Z,1003.18
2019-02-10T00:21:33.062Z,1003.16
2019-02-10T00:22:33.258Z,1003.12
2019-02-10T00:23:33.474Z,1003.11
2019-02-10T00:24:33.697Z,1003.13
2019-02-10T00:25:33.929Z,1003.08
2019-02-10T00:26:34.134Z,1003.12
2019-02-10T00:27:34.427Z,1003.10
2019-02-10T00:28:34.591Z,1003.13
2019-02-10T00:29:34.809Z,1003.07
2019-02-10T00:30:35.039Z,1003.12
2019-02-10T00:31:35.228Z,1003.13
2019-02-10T00:32:35.455Z,1003.13
2019-02-10T00:33:35.678Z,1003.22
2019-02-10T00:34:35.897Z,1003.20
2019-02-10T00:35:36.203Z,1003.20
2019-02-10T00:36:36.313Z,1003.26
2019-02-10T00:37:36.536Z,1003.26
2019-02-10T00:38:36.781Z,1003.20
2019-02-10T00:39:36.964Z,1003.19
2019-02-10T00:40:37.200Z,1003.19
2019-02-10T00:41:37.398Z,1003.21
2019-02-10T00:42:37.643Z,1003.21
2019-02-10T00:43:37.880Z,1003.22
2019-02-10T00:44:38.012Z,1003.21
2019-02-10T00:45:38.264Z,1003.16
2019-02-10T00:46:38.480Z,1003.18
2019-02-10T00:47:38.699Z,1003.20
2019-02-10T00:48:38.931Z,1003.24
2019-02-10T00:49:39.142Z,1003.20
2019-02-10T00:50:39.376Z,1003.20
2019-02-10T00:51:39.575Z,1003.25
2019-02-10T00:52:39.875Z,1003.20
2019-02-10T00:53:40.013Z,1003.16
2019-02-10T00:54:40.201Z,1003.22
2019-02-10T00:55:40.420Z,1003.18
2019-02-10T00:56:40.633Z,1003.20
2019-02-10T00:57:40.852Z,1003.22
2019-02-10T00:58:41.090Z,1003.18
2019-02-10T00:59:41.290Z,1003.22
2019-02-10T01:00:41.865Z,1003.22
2019-02-10T01:01:41.696Z,1003.23
2019-02-10T01:02:41.911Z,1003.19
2019-02-10T01:03:42.146Z,1003.26
2019-02-10T01:04:42.354Z,1003.17
2019-02-10T01:05:42.577Z,1003.20
2019-02-10T01:06:42.759Z,1003.22
2019-02-10T01:07:42.990Z,1003.15
2019-02-10T01:08:43.320Z,1003.18
2019-02-10T01:09:43.415Z,1003.10
2019-02-10T01:10:43.642Z,1003.11
2019-02-10T01:11:43.824Z,1003.16
2019-02-10T01:12:44.055Z,1003.14
2019-02-10T01:13:44.303Z,1003.13
2019-02-10T01:14:44.506Z,1003.09
2019-02-10T01:15:44.731Z,1003.12
2019-02-10T01:16:44.953Z,1003.06
2019-02-10T01:17:45.111Z,1002.99
2019-02-10T01:18:45.364Z,1003.06
2019-02-10T01:19:45.573Z,1003.05
2019-02-10T01:20:45.790Z,1003.02
2019-02-10T01:21:45.989Z,1002.98
2019-02-10T01:22:46.208Z,1003.01
2019-02-10T01:23:46.432Z,1002.97
2019-02-10T01:24:46.925Z,1002.96
2019-02-10T01:25:46.913Z,1003.01
2019-02-10T01:26:47.057Z,1002.95
2019-02-10T01:27:47.277Z,1002.93
2019-02-10T01:28:47.481Z,1002.91
2019-02-10T01:29:47.717Z,1002.93
2019-02-10T01:30:47.942Z,1002.96
2019-02-10T01:31:48.137Z,1002.92
2019-02-10T01:32:48.357Z,1002.95
2019-02-10T01:33:48.675Z,1002.92
2019-02-10T01:34:48.783Z,1002.95
2019-02-10T01:35:49.010Z,1002.97
2019-02-10T01:36:49.721Z,1002.96
2019-02-10T01:37:49.420Z,1002.94
2019-02-10T01:38:49.635Z,1002.91
2019-02-10T01:39:49.858Z,1002.95
2019-02-10T01:40:50.072Z,1002.93
2019-02-10T01:41:50.415Z,1002.93
2019-02-10T01:42:50.504Z,1002.98
2019-02-10T01:43:50.720Z,1002.89
2019-02-10T01:44:50.951Z,1002.87
2019-02-10T01:45:51.146Z,1002.84
2019-02-10T01:46:51.381Z,1002.90
2019-02-10T01:47:51.591Z,1002.88
2019-02-10T01:48:51.837Z,1002.94
2019-02-10T01:49:52.039Z,1002.90
2019-02-10T01:50:52.218Z,1002.89
2019-02-10T01:51:52.456Z,1002.87
2019-02-10T01:52:52.656Z,1002.87
2019-02-10T01:53:52.909Z,1002.83
2019-02-10T01:54:53.084Z,1002.82
2019-02-10T01:55:53.300Z,1002.81
2019-02-10T01:56:53.542Z,1002.80
2019-02-10T01:57:53.781Z,1002.73
2019-02-10T01:58:53.949Z,1002.78
2019-02-10T01:59:54.158Z,1002.77
2019-02-10T02:00:54.356Z,1002.81
2019-02-10T02:01:54.608Z,1002.71
2019-02-10T02:02:54.799Z,1002.77
2019-02-10T02:03:55.043Z,1002.70
2019-02-10T02:04:55.254Z,1002.73
2019-02-10T02:05:55.459Z,1002.73
2019-02-10T02:06:57.821Z,1002.72
2019-02-10T02:07:55.904Z,1002.68
2019-02-10T02:08:56.135Z,1002.67
2019-02-10T02:09:56.347Z,1002.73
2019-02-10T02:10:56.547Z,1002.69
2019-02-10T02:11:56.817Z,1002.66
2019-02-10T02:12:56.980Z,1002.67
2019-02-10T02:13:57.215Z,1002.69
2019-02-10T02:14:57.540Z,1002.68
2019-02-10T02:15:57.608Z,1002.62
2019-02-10T02:16:57.853Z,1002.60
2019-02-10T02:17:58.046Z,1002.59
2019-02-10T02:18:58.279Z,1002.58
2019-02-10T02:19:58.496Z,1002.57
2019-02-10T02:20:58.700Z,1002.53
2019-02-10T02:21:58.911Z,1002.56
2019-02-10T02:22:59.227Z,1002.56
2019-02-10T02:23:59.364Z,1002.61
2019-02-10T02:24:59.579Z,1002.55
2019-02-10T02:25:59.777Z,1002.59
2019-02-10T02:26:59.993Z,1002.57
2019-02-10T02:28:00.206Z,1002.58
2019-02-10T02:29:00.455Z,1002.52
2019-02-10T02:30:00.980Z,1002.55
2019-02-10T02:31:00.896Z,1002.57
2019-02-10T02:32:01.086Z,1002.60
2019-02-10T02:33:01.269Z,1002.57
2019-02-10T02:34:01.512Z,1002.57
2019-02-10T02:35:01.732Z,1002.55
2019-02-10T02:36:01.929Z,1002.60
2019-02-10T02:37:07.585Z,1002.60
2019-02-10T02:38:03.348Z,1002.56
2019-02-10T02:39:02.825Z,1002.50
2019-02-10T02:40:02.806Z,1002.56
2019-02-10T02:41:02.991Z,1002.47
2019-02-10T02:42:03.232Z,1002.50
2019-02-10T02:43:03.432Z,1002.44
2019-02-10T02:44:03.620Z,1002.49
2019-02-10T02:45:03.868Z,1002.39
2019-02-10T02:46:04.090Z,1002.38
2019-02-10T02:47:04.338Z,1002.35
2019-02-10T02:48:04.621Z,1002.31
2019-02-10T02:49:04.733Z,1002.34
2019-02-10T02:50:04.987Z,1002.30
2019-02-10T02:51:05.250Z,1002.28
2019-02-10T02:52:05.425Z,1002.27
2019-02-10T02:53:05.624Z,1002.32
2019-02-10T02:54:05.840Z,1002.32
2019-02-10T02:55:06.060Z,1002.26
2019-02-10T02:56:06.376Z,1002.26
2019-02-10T02:57:06.518Z,1002.22
2019-02-10T02:58:06.712Z,1002.28
2019-02-10T02:59:06.913Z,1002.23
2019-02-10T03:00:07.171Z,1002.18
2019-02-10T03:01:07.371Z,1002.19
2019-02-10T03:02:07.620Z,1002.20
2019-02-10T03:03:07.797Z,1002.19
2019-02-10T03:04:08.068Z,1002.19
2019-02-10T03:05:08.232Z,1002.14
2019-02-10T03:06:08.432Z,1002.14
2019-02-10T03:07:17.508Z,1002.11
2019-02-10T03:08:09.857Z,1002.09
2019-02-10T03:09:09.073Z,1002.08
2019-02-10T03:10:09.320Z,1002.05
2019-02-10T03:11:09.488Z,1001.99
2019-02-10T03:12:09.814Z,1002.04
2019-02-10T03:13:09.910Z,1002.01
2019-02-10T03:14:10.139Z,1001.94
2019-02-10T03:15:10.369Z,1001.99
2019-02-10T03:16:10.546Z,1002.00
2019-02-10T03:17:10.782Z,1002.02
2019-02-10T03:18:11.001Z,1001.99
2019-02-10T03:19:11.218Z,1002.04
2019-02-10T03:20:11.493Z,1001.97
2019-02-10T03:21:11.680Z,1001.94
2019-02-10T03:22:11.873Z,1001.95
2019-02-10T03:23:12.082Z,1001.94
2019-02-10T03:24:12.298Z,1001.91
2019-02-10T03:25:12.566Z,1001.89
2019-02-10T03:26:12.727Z,1001.89
2019-02-10T03:27:12.957Z,1001.92
2019-02-10T03:28:13.143Z,1001.95
2019-02-10T03:29:13.437Z,1001.96
2019-02-10T03:30:13.632Z,1001.95
2019-02-10T03:31:13.796Z,1001.93
2019-02-10T03:32:14.015Z,1001.93
2019-02-10T03:33:14.363Z,1001.90
2019-02-10T03:34:14.428Z,1001.92
2019-02-10T03:35:14.677Z,1001.89
2019-02-10T03:36:14.872Z,1001.91
2019-02-10T03:37:15.193Z,1001.85
2019-02-10T03:38:15.288Z,1001.89
2019-02-10T03:39:15.536Z,1001.87
2019-02-10T03:40:15.754Z,1001.91
2019-02-10T03:41:15.935Z,1001.86
2019-02-10T03:42:16.160Z,1001.83
2019-02-10T03:43:16.353Z,1001.85
2019-02-10T03:44:16.583Z,1001.81
2019-02-10T03:45:16.893Z,1001.81
2019-02-10T03:46:16.995Z,1001.74
2019-02-10T03:47:17.218Z,1001.77
2019-02-10T03:48:17.414Z,1001.76
2019-02-10T03:49:17.646Z,1001.71
2019-02-10T03:50:17.940Z,1001.66
2019-02-10T03:51:18.092Z,1001.65
2019-02-10T03:52:18.303Z,1001.64
2019-02-10T03:53:18.572Z,1001.66
2019-02-10T03:54:18.709Z,1001.73
2019-02-10T03:55:19.012Z,1001.70
2019-02-10T03:56:19.174Z,1001.68
2019-02-10T03:57:19.391Z,1001.60
2019-02-10T03:58:19.621Z,1001.68
2019-02-10T03:59:19.837Z,1001.63
2019-02-10T04:00:20.089Z,1001.65
2019-02-10T04:01:20.284Z,1001.60
2019-02-10T04:02:20.583Z,1001.58
2019-02-10T04:03:20.732Z,1001.62
2019-02-10T04:04:20.907Z,1001.61
2019-02-10T04:05:21.181Z,1001.55
2019-02-10T04:06:21.394Z,1001.56
2019-02-10T04:07:21.591Z,1001.49
2019-02-10T04:08:21.821Z,1001.51
2019-02-10T04:09:22.020Z,1001.52
2019-02-10T04:10:22.347Z,1001.52
2019-02-10T04:11:22.460Z,1001.47
2019-02-10T04:12:22.659Z,1001.45
2019-02-10T04:13:22.902Z,1001.45
2019-02-10T04:14:23.093Z,1001.45
2019-02-10T04:15:23.319Z,1001.47
2019-02-10T04:16:23.530Z,1001.46
2019-02-10T04:17:23.744Z,1001.40
2019-02-10T04:18:24.274Z,1001.42
2019-02-10T04:19:24.160Z,1001.44
2019-02-10T04:20:24.382Z,1001.43
2019-02-10T04:21:24.596Z,1001.42
2019-02-10T04:22:24.821Z,1001.37
2019-02-10T04:23:25.051Z,1001.38
2019-02-10T04:24:25.251Z,1001.34
2019-02-10T04:25:25.481Z,1001.35
2019-02-10T04:26:25.724Z,1001.35
2019-02-10T04:27:25.873Z,1001.31
2019-02-10T04:28:26.117Z,1001.34
2019-02-10T04:29:26.313Z,1001.26
2019-02-10T04:30:26.627Z,1001.26
2019-02-10T04:31:26.746Z,1001.33
2019-02-10T04:32:26.937Z,1001.26
2019-02-10T04:33:27.187Z,1001.24
2019-02-10T04:34:27.423Z,1001.23
2019-02-10T04:35:27.663Z,1001.21
2019-02-10T04:36:27.825Z,1001.24
2019-02-10T04:37:28.008Z,1001.21
2019-02-10T04:38:28.263Z,1001.29
2019-02-10T04:39:28.461Z,1001.24
2019-02-10T04:40:28.693Z,1001.21
2019-02-10T04:41:28.936Z,1001.19
2019-02-10T04:42:29.124Z,1001.17
2019-02-10T04:43:29.415Z,1001.17
2019-02-10T04:44:29.541Z,1001.20
2019-02-10T04:45:29.766Z,1001.22
2019-02-10T04:46:29.974Z,1001.24
2019-02-10T04:47:30.165Z,1001.23
2019-02-10T04:48:30.410Z,1001.16
2019-02-10T04:49:30.622Z,1001.08
2019-02-10T04:50:30.829Z,1001.12
2019-02-10T04:51:31.207Z,1001.03
2019-02-10T04:52:31.251Z,1001.09
2019-02-10T04:53:31.504Z,1001.06
2019-02-10T04:54:31.700Z,1001.02
2019-02-10T04:55:31.921Z,1001.05
2019-02-10T04:56:32.165Z,1001.05
2019-02-10T04:57:32.364Z,1001.04
2019-02-10T04:58:32.577Z,1001.07
2019-02-10T04:59:32.840Z,1001.02
2019-02-10T05:00:33.004Z,1001.04
2019-02-10T05:01:33.261Z,1000.99
2019-02-10T05:02:33.469Z,1000.95
2019-02-10T05:03:33.678Z,1000.91
2019-02-10T05:04:33.892Z,1000.90
2019-02-10T05:05:34.125Z,1000.93
2019-02-10T05:06:34.362Z,1000.94
2019-02-10T05:07:34.617Z,1000.93
2019-02-10T05:08:34.767Z,1000.93
2019-02-10T05:09:34.949Z,1000.88
2019-02-10T05:10:35.181Z,1000.83
2019-02-10T05:11:35.435Z,1000.84
2019-02-10T05:12:35.619Z,1000.83
2019-02-10T05:13:35.844Z,1000.80
2019-02-10T05:14:36.048Z,1000.75
2019-02-10T05:15:36.277Z,1000.76
2019-02-10T05:16:36.557Z,1000.73
2019-02-10T05:17:36.697Z,1000.79
2019-02-10T05:18:36.911Z,1000.71
2019-02-10T05:19:37.108Z,1000.71
2019-02-10T05:20:37.325Z,1000.68
2019-02-10T05:21:37.577Z,1000.71
2019-02-10T05:22:39.275Z,1000.69
2019-02-10T05:23:38.010Z,1000.66
2019-02-10T05:24:38.330Z,1000.63
2019-02-10T05:25:38.415Z,1000.66
2019-02-10T05:26:38.658Z,1000.64
2019-02-10T05:27:38.845Z,1000.58
2019-02-10T05:28:39.079Z,1000.58
2019-02-10T05:29:39.270Z,1000.59
2019-02-10T05:30:39.474Z,1000.52
2019-02-10T05:31:39.750Z,1000.52
2019-02-10T05:32:40.017Z,1000.52
2019-02-10T05:33:40.160Z,1000.46
2019-02-10T05:34:40.353Z,1000.42
2019-02-10T05:35:40.561Z,1000.45
2019-02-10T05:36:40.815Z,1000.42
2019-02-10T05:37:41.005Z,1000.36
2019-02-10T05:38:41.236Z,1000.37
2019-02-10T05:39:41.435Z,1000.36
2019-02-10T05:40:41.669Z,1000.40
2019-02-10T05:41:41.857Z,1000.34
2019-02-10T05:42:42.069Z,1000.40
2019-02-10T05:43:42.300Z,1000.40
2019-02-10T05:44:42.499Z,1000.33
2019-02-10T05:45:42.715Z,1000.32
2019-02-10T05:46:42.957Z,1000.32
2019-02-10T05:47:43.125Z,1000.28
2019-02-10T05:48:43.418Z,1000.24
2019-02-10T05:49:43.563Z,1000.22
2019-02-10T05:50:43.797Z,1000.24
2019-02-10T05:51:44.082Z,1000.18
2019-02-10T05:52:44.206Z,1000.17
2019-02-10T05:53:44.458Z,1000.16
2019-02-10T05:54:44.661Z,1000.12
2019-02-10T05:55:44.868Z,1000.07
2019-02-10T05:56:45.136Z,1000.05
2019-02-10T05:57:45.434Z,1000.06
2019-02-10T05:58:45.750Z,999.99
2019-02-10T05:59:45.745Z,1000.02
2019-02-10T06:00:45.966Z,999.95
2019-02-10T06:01:46.210Z,999.96
2019-02-10T06:02:46.397Z,999.92
2019-02-10T06:03:46.653Z,999.92
2019-02-10T06:04:46.841Z,999.89
2019-02-10T06:05:47.208Z,999.89
2019-02-10T06:06:47.347Z,999.90
2019-02-10T06:07:47.488Z,999.82
2019-02-10T06:08:47.723Z,999.87
2019-02-10T06:09:48.027Z,999.88
2019-02-10T06:10:48.174Z,999.85
2019-02-10T06:11:48.433Z,999.87
2019-02-10T06:12:48.607Z,999.82
2019-02-10T06:13:48.848Z,999.81
2019-02-10T06:14:49.040Z,999.75
2019-02-10T06:15:49.240Z,999.73
2019-02-10T06:16:49.504Z,999.69
2019-02-10T06:17:49.673Z,999.67
2019-02-10T06:18:49.870Z,999.68
2019-02-10T06:19:50.102Z,999.58
2019-02-10T06:20:50.319Z,999.57
2019-02-10T06:21:50.631Z,999.52
2019-02-10T06:22:50.728Z,999.52
2019-02-10T06:23:50.955Z,999.54
2019-02-10T06:24:51.164Z,999.53
2019-02-10T06:25:51.381Z,999.55
2019-02-10T06:26:51.655Z,999.51
2019-02-10T06:27:51.824Z,999.52
2019-02-10T06:28:52.046Z,999.54
2019-02-10T06:29:52.332Z,999.49
2019-02-10T06:30:52.499Z,999.45
2019-02-10T06:31:52.744Z,999.47
2019-02-10T06:32:52.906Z,999.50
2019-02-10T06:33:53.111Z,999.50
2019-02-10T06:34:53.364Z,999.52
2019-02-10T06:35:53.536Z,999.46
2019-02-10T06:36:53.847Z,999.43
2019-02-10T06:37:54.020Z,999.47
2019-02-10T06:38:54.352Z,999.40
2019-02-10T06:39:54.428Z,999.43
2019-02-10T06:40:54.625Z,999.46
2019-02-10T06:41:54.883Z,999.36
2019-02-10T06:42:55.084Z,999.40
2019-02-10T06:43:55.283Z,999.29
2019-02-10T06:44:55.515Z,999.24
2019-02-10T06:45:55.711Z,999.21
2019-02-10T06:46:56.004Z,999.27
2019-02-10T06:47:57.662Z,999.22
2019-02-10T06:48:56.360Z,999.21
2019-02-10T06:49:56.600Z,999.20
2019-02-10T06:50:56.776Z,999.29
2019-02-10T06:51:57.023Z,999.22
2019-02-10T06:52:57.246Z,999.22
2019-02-10T06:53:57.450Z,999.23
2019-02-10T06:54:57.738Z,999.26
2019-02-10T06:55:57.862Z,999.29
2019-02-10T06:56:58.077Z,999.29
2019-02-10T06:57:58.318Z,999.25
2019-02-10T06:58:58.510Z,999.26
2019-02-10T06:59:58.753Z,999.21
2019-02-10T07:00:58.946Z,999.21
2019-02-10T07:01:59.163Z,999.17
2019-02-10T07:02:59.399Z,999.18
2019-02-10T07:03:59.568Z,999.15
2019-02-10T07:04:59.801Z,999.17
2019-02-10T07:06:00.013Z,999.19
2019-02-10T07:07:00.240Z,999.12
2019-02-10T07:08:00.455Z,999.16
2019-02-10T07:09:00.684Z,999.10
2019-02-10T07:10:00.931Z,999.10
2019-02-10T07:11:01.174Z,998.98
2019-02-10T07:12:01.428Z,998.99
2019-02-10T07:13:01.567Z,998.99
2019-02-10T07:14:01.774Z,998.90
2019-02-10T07:15:02.009Z,998.91
2019-02-10T07:16:02.204Z,998.87
2019-02-10T07:17:02.421Z,998.84
2019-02-10T07:18:02.664Z,998.87
2019-02-10T07:19:02.843Z,998.85
2019-02-10T07:20:03.196Z,998.77
2019-02-10T07:21:03.289Z,998.80
2019-02-10T07:22:03.492Z,998.76
2019-02-10T07:23:03.735Z,998.81
2019-02-10T07:24:03.909Z,998.75
2019-02-10T07:25:04.158Z,998.74
2019-02-10T07:26:04.362Z,998.73
2019-02-10T07:27:04.580Z,998.71
2019-02-10T07:28:05.047Z,998.70
2019-02-10T07:29:04.996Z,998.72
2019-02-10T07:30:05.242Z,998.63
2019-02-10T07:31:05.443Z,998.65
2019-02-10T07:32:05.660Z,998.59
2019-02-10T07:33:06.189Z,998.56
2019-02-10T07:34:06.079Z,998.54
2019-02-10T07:35:06.332Z,998.56
2019-02-10T07:36:06.615Z,998.50
2019-02-10T07:37:06.959Z,998.53
2019-02-10T07:38:07.022Z,998.52
2019-02-10T07:39:07.172Z,998.47
2019-02-10T07:40:07.391Z,998.45
2019-02-10T07:41:07.577Z,998.43
2019-02-10T07:42:07.810Z,998.36
2019-02-10T07:43:08.072Z,998.34
2019-02-10T07:44:08.277Z,998.31
2019-02-10T07:45:08.474Z,998.27
2019-02-10T07:46:08.661Z,998.30
2019-02-10T07:47:08.892Z,998.25
2019-02-10T07:48:09.139Z,998.26
2019-02-10T07:49:09.321Z,998.21
2019-02-10T07:50:09.570Z,998.20
2019-02-10T07:51:09.747Z,998.13
2019-02-10T07:52:09.960Z,998.12
2019-02-10T07:53:10.314Z,998.09
2019-02-10T07:54:10.399Z,998.04
2019-02-10T07:55:10.644Z,997.92
2019-02-10T07:56:10.812Z,997.90
2019-02-10T07:57:11.043Z,997.88
2019-02-10T07:58:11.273Z,997.91
2019-02-10T07:59:11.473Z,997.85
2019-02-10T08:00:11.710Z,997.89
2019-02-10T08:01:12.018Z,997.93
2019-02-10T08:02:12.120Z,997.84
2019-02-10T08:03:12.351Z,997.76
2019-02-10T08:04:12.569Z,997.79
2019-02-10T08:05:12.792Z,997.74
2019-02-10T08:06:12.967Z,997.75
2019-02-10T08:07:13.183Z,997.74
2019-02-10T08:08:13.437Z,997.76
2019-02-10T08:09:13.675Z,997.78
2019-02-10T08:10:13.839Z,997.75
2019-02-10T08:11:14.064Z,997.71
2019-02-10T08:12:14.269Z,997.67
2019-02-10T08:13:14.513Z,997.72
2019-02-10T08:14:14.812Z,997.71
2019-02-10T08:15:14.927Z,997.64
2019-02-10T08:16:15.162Z,997.69
2019-02-10T08:17:15.452Z,997.69
2019-02-10T08:18:15.562Z,997.65
2019-02-10T08:19:15.781Z,997.60
2019-02-10T08:20:15.997Z,997.61
2019-02-10T08:21:16.221Z,997.60
2019-02-10T08:22:16.432Z,997.63
2019-02-10T08:23:16.669Z,997.67
2019-02-10T08:24:21.173Z,997.55
2019-02-10T08:25:17.099Z,997.55
2019-02-10T08:26:17.345Z,997.51
2019-02-10T08:27:17.504Z,997.49
2019-02-10T08:28:17.766Z,997.57
2019-02-10T08:29:17.936Z,997.50
2019-02-10T08:30:18.150Z,997.47
2019-02-10T08:31:18.383Z,997.48
2019-02-10T08:32:18.583Z,997.40
2019-02-10T08:33:18.833Z,997.37
2019-02-10T08:34:19.103Z,997.34
2019-02-10T08:35:19.226Z,997.37
2019-02-10T08:36:19.458Z,997.37
2019-02-10T08:37:19.656Z,997.33
2019-02-10T08:38:19.884Z,997.28
2019-02-10T08:39:20.077Z,997.30
2019-02-10T08:40:20.298Z,997.22
2019-02-10T08:41:20.546Z,997.28
2019-02-10T08:42:20.887Z,997.18
2019-02-10T08:43:20.975Z,997.12
2019-02-10T08:44:21.186Z,997.05
2019-02-10T08:45:21.384Z,997.05
2019-02-10T08:46:21.618Z,997.03
2019-02-10T08:47:21.831Z,996.98
2019-02-10T08:48:22.052Z,996.97
2019-02-10T08:49:22.247Z,996.92
2019-02-10T08:50:22.535Z,996.86
2019-02-10T08:51:22.678Z,996.77
2019-02-10T08:52:22.896Z,996.76
2019-02-10T08:53:23.117Z,996.73
2019-02-10T08:54:23.334Z,996.67
2019-02-10T08:55:23.530Z,996.60
2019-02-10T08:56:23.748Z,996.59
2019-02-10T08:57:24.157Z,996.54
2019-02-10T08:58:24.221Z,996.46
2019-02-10T08:59:24.366Z,996.51
2019-02-10T09:00:24.598Z,996.43
2019-02-10T09:01:24.820Z,996.40
2019-02-10T09:02:25.038Z,996.37
2019-02-10T09:03:25.282Z,996.31
2019-02-10T09:04:25.500Z,996.34
2019-02-10T09:05:25.696Z,996.31
2019-02-10T09:06:26.407Z,996.23
2019-02-10T09:07:26.336Z,996.13
2019-02-10T09:08:26.337Z,996.11
2019-02-10T09:09:26.556Z,996.06
2019-02-10T09:10:26.770Z,995.99
2019-02-10T09:11:27.002Z,995.91
2019-02-10T09:12:27.205Z,995.95
2019-02-10T09:13:27.427Z,995.95
2019-02-10T09:14:27.888Z,995.91
2019-02-10T09:15:28.038Z,995.85
2019-02-10T09:16:28.081Z,995.89
2019-02-10T09:17:28.285Z,995.80
2019-02-10T09:18:28.503Z,995.77
2019-02-10T09:19:28.735Z,995.74
2019-02-10T09:20:28.944Z,995.71
2019-02-10T09:21:29.173Z,995.63
2019-02-10T09:22:29.383Z,995.60
2019-02-10T09:23:29.658Z,995.54
2019-02-10T09:24:29.805Z,995.49
2019-02-10T09:25:30.001Z,995.41
2019-02-10T09:26:30.248Z,995.48
2019-02-10T09:27:30.436Z,995.37
2019-02-10T09:28:30.637Z,995.36
2019-02-10T09:29:30.881Z,995.33
2019-02-10T09:30:31.093Z,995.18
2019-02-10T09:31:33.107Z,995.19
2019-02-10T09:32:31.485Z,995.18
2019-02-10T09:33:31.756Z,995.19
2019-02-10T09:34:31.943Z,995.12
2019-02-10T09:35:32.149Z,995.05
2019-02-10T09:36:32.372Z,995.07
2019-02-10T09:37:32.573Z,994.95
2019-02-10T09:38:32.782Z,994.98
2019-02-10T09:39:33.048Z,994.95
2019-02-10T09:40:33.295Z,994.94
2019-02-10T09:41:33.460Z,994.85
2019-02-10T09:42:34.409Z,994.86
2019-02-10T09:43:33.873Z,994.81
2019-02-10T09:44:34.092Z,994.78
2019-02-10T09:45:34.311Z,994.73
2019-02-10T09:46:34.553Z,994.71
2019-02-10T09:47:34.753Z,994.62
2019-02-10T09:48:35.085Z,994.63
2019-02-10T09:49:35.184Z,994.50
2019-02-10T09:50:35.402Z,994.56
2019-02-10T09:51:35.627Z,994.47
2019-02-10T09:52:35.828Z,994.47
2019-02-10T09:53:36.417Z,994.44
2019-02-10T09:54:36.273Z,994.37
2019-02-10T09:55:36.463Z,994.34
2019-02-10T09:56:37.410Z,994.32
2019-02-10T09:57:36.896Z,994.39
2019-02-10T09:58:37.116Z,994.29
2019-02-10T09:59:37.332Z,994.31
2019-02-10T10:00:37.557Z,994.22
2019-02-10T10:01:37.776Z,994.15
2019-02-10T10:02:37.980Z,994.19
2019-02-10T10:03:38.189Z,994.20
2019-02-10T10:04:38.441Z,994.10
2019-02-10T10:05:38.597Z,994.12
2019-02-10T10:06:38.842Z,994.10
2019-02-10T10:07:39.037Z,994.03
2019-02-10T10:08:39.245Z,993.99
2019-02-10T10:09:39.487Z,993.94
2019-02-10T10:10:39.676Z,993.87
2019-02-10T10:11:39.901Z,993.82
2019-02-10T10:12:40.172Z,993.81
2019-02-10T10:13:40.304Z,993.76
2019-02-10T10:14:40.547Z,993.74
2019-02-10T10:15:40.753Z,993.68
2019-02-10T10:16:40.963Z,993.60
2019-02-10T10:17:41.181Z,993.53
2019-02-10T10:18:41.397Z,993.54
2019-02-10T10:19:41.629Z,993.52
2019-02-10T10:20:41.888Z,993.42
2019-02-10T10:21:42.098Z,993.37
2019-02-10T10:22:42.299Z,993.38
2019-02-10T10:23:42.468Z,993.38
2019-02-10T10:24:49.315Z,993.28
2019-02-10T10:25:43.891Z,993.26
2019-02-10T10:26:43.113Z,993.24
2019-02-10T10:27:43.374Z,993.14
2019-02-10T10:28:43.570Z,993.18
2019-02-10T10:29:43.913Z,993.16
2019-02-10T10:30:43.994Z,993.16
2019-02-10T10:31:44.196Z,993.13
2019-02-10T10:32:44.442Z,993.11
2019-02-10T10:33:44.664Z,993.10
2019-02-10T10:34:44.894Z,993.06
2019-02-10T10:35:45.143Z,992.90
2019-02-10T10:36:45.310Z,992.90
2019-02-10T10:37:45.648Z,992.80
2019-02-10T10:38:45.735Z,992.82
2019-02-10T10:39:45.967Z,992.78
2019-02-10T10:40:46.163Z,992.75
2019-02-10T10:41:46.379Z,992.68
2019-02-10T10:42:46.607Z,992.66
2019-02-10T10:43:46.812Z,992.61
2019-02-10T10:44:47.050Z,992.48
2019-02-10T10:45:47.314Z,992.42
2019-02-10T10:46:47.450Z,992.43
2019-02-10T10:47:47.693Z,992.31
2019-02-10T10:48:47.869Z,992.28
2019-02-10T10:49:48.119Z,992.27
2019-02-10T10:50:48.325Z,992.21
2019-02-10T10:51:48.527Z,992.20
2019-02-10T10:52:48.987Z,992.17
2019-02-10T10:53:48.972Z,992.03
2019-02-10T10:54:49.184Z,992.04
2019-02-10T10:55:49.418Z,991.97
2019-02-10T10:56:49.623Z,991.98
2019-02-10T10:57:49.856Z,991.93
2019-02-10T10:58:50.047Z,991.91
2019-02-10T10:59:50.295Z,991.84
2019-02-10T11:00:50.479Z,991.84
2019-02-10T11:01:50.717Z,991.88
2019-02-10T11:02:51.030Z,991.82
2019-02-10T11:03:51.127Z,991.74
2019-02-10T11:04:51.348Z,991.72
2019-02-10T11:05:51.600Z,991.70
2019-02-10T11:06:51.787Z,991.67
2019-02-10T11:07:52.062Z,991.69
2019-02-10T11:08:52.216Z,991.58
2019-02-10T11:09:52.447Z,991.58
2019-02-10T11:10:52.716Z,991.64
2019-02-10T11:11:52.857Z,991.59
2019-02-10T11:12:53.099Z,991.58
2019-02-10T11:13:53.291Z,991.55
2019-02-10T11:14:53.528Z,991.50
2019-02-10T11:15:53.702Z,991.48
2019-02-10T11:16:53.949Z,991.42
2019-02-10T11:17:54.180Z,991.27
2019-02-10T11:18:54.435Z,991.32
2019-02-10T11:19:54.582Z,991.20
2019-02-10T11:20:54.775Z,991.25
2019-02-10T11:21:55.015Z,991.27
2019-02-10T11:22:55.233Z,991.18
2019-02-10T11:23:55.433Z,991.16
2019-02-10T11:24:55.650Z,991.15
2019-02-10T11:25:55.863Z,991.09
2019-02-10T11:26:56.125Z,990.98
2019-02-10T11:27:56.295Z,990.89
2019-02-10T11:28:56.499Z,990.96
2019-02-10T11:29:56.708Z,990.99
2019-02-10T11:30:56.945Z,991.00
2019-02-10T11:31:57.150Z,991.08
2019-02-10T11:32:57.378Z,991.07
2019-02-10T11:33:57.600Z,991.07
2019-02-10T11:34:57.841Z,991.04
2019-02-10T11:35:58.092Z,991.05
2019-02-10T11:36:58.277Z,990.94
2019-02-10T11:37:58.541Z,990.92
2019-02-10T11:38:58.706Z,990.88
2019-02-10T11:39:58.916Z,990.75
2019-02-10T11:40:59.149Z,990.69
2019-02-10T11:41:59.350Z,990.60
2019-02-10T11:43:00.051Z,990.65
2019-02-10T11:43:59.885Z,990.59
2019-02-10T11:45:00.007Z,990.69
2019-02-10T11:46:00.237Z,990.65
2019-02-10T11:47:00.443Z,990.58
2019-02-10T11:48:00.653Z,990.54
2019-02-10T11:49:00.861Z,990.43
2019-02-10T11:50:01.079Z,990.28
2019-02-10T11:51:01.309Z,990.21
2019-02-10T11:52:01.638Z,990.25
2019-02-10T11:53:01.740Z,990.30
2019-02-10T11:54:01.958Z,990.40
2019-02-10T11:55:02.169Z,990.40
2019-02-10T11:56:02.392Z,990.45
2019-02-10T11:57:02.615Z,990.33
2019-02-10T11:58:02.817Z,990.27
2019-02-10T11:59:03.013Z,990.18
2019-02-10T12:00:03.311Z,990.02
2019-02-10T12:01:03.509Z,990.06
2019-02-10T12:02:03.678Z,990.04
2019-02-10T12:03:03.902Z,990.04
2019-02-10T12:04:04.081Z,990.02
2019-02-10T12:05:04.313Z,990.07
2019-02-10T12:06:04.559Z,990.03
2019-02-10T12:07:04.771Z,990.11
2019-02-10T12:08:05.041Z,990.06
2019-02-10T12:09:05.149Z,989.97
2019-02-10T12:10:05.373Z,990.00
2019-02-10T12:11:05.627Z,990.06
2019-02-10T12:12:06.119Z,990.07
2019-02-10T12:13:06.059Z,989.90
2019-02-10T12:14:06.254Z,989.84
2019-02-10T12:15:06.471Z,989.85
2019-02-10T12:16:06.708Z,989.84
2019-02-10T12:17:06.989Z,989.84
2019-02-10T12:18:07.116Z,989.82
2019-02-10T12:19:07.329Z,989.74
2019-02-10T12:20:07.527Z,989.77